首页
METAR-TAF:

METAR-TAF

机场 :

于克塞科瓦, 土耳其

纬度: 37-33-06N, 经度: 44-14-01E, 海拔: 1950米

当前天气观测

该预报发布于1小时和50分钟前的07:50 UTC
风速3节,风向西
温度 -3°C
湿度 93%
气压 1015 hPa
能見度: 1500
散云层高于1500英尺
阴天层高于3000英尺
小雪, 碎片雾

METAR: LTCW 180750Z 28003KT 1500 R11/0650N R29/P1500N -SN BCFG SCT015 OVC030 M03/M04 Q1015 RESN

时间: 12:40 (09:40 UTC)

预报

该预报发布于2小时和0分钟前的07:40 UTC
预报有效从18日的 09点(UTC)到 18日的 18点(UTC)
风速2节,风向多变
能見度: 1200
散云层高于700英尺
多云层高于3000英尺
阴天层高于7000英尺
小雪, 轻雾
短暂存在
从 18日的 09点(UTC)到 18日的 12点(UTC)
能見度: 0500
层高于100英尺
雪, 冻雾
短暂存在
从 18日的 12点(UTC)到 18日的 15点(UTC)
能見度: 0500
层高于100英尺
雪, 冻雾
短暂存在
从 18日的 15点(UTC)到 18日的 18点(UTC)
能見度: 0500
层高于100英尺
雪, 冻雾

TAF: LTCW 180740Z 1809/1818 VRB02KT 1200 -SN BR SCT007 BKN030 OVC070 TEMPO 1809/1812 0500 SN FZFG VV001 TEMPO 1812/1815 0500 SN FZFG VV001 TEMPO 1815/1818 0500 SN FZFG VV001

超过4000个机场的气象观测和天气预报(METAR&TAF报告)。

可查询的气象台以黄色和红色小点在地图上表示。

将鼠标移到小点上方,可查看气象台名称。

然后点击查看天气观测和预报。

如需切换地图:点击带黑十字的绿色按钮放大地图;点击带横线的绿色按钮缩小地图;或者点击绿色箭头查看邻近地区的地图。


METAR-TAF: